Time;durP1;ratioP1;P1;durP2;ratioP2;P2;SDS_P1;SDS_P2;PMS_P1;PMS_P2;Temp;Humidity;BMP_temperature;BMP_pressure;BME280_temperature;BME280_humidity;BME280_pressure;Samples;Min_cycle;Max_cycle;Signal;HPM_P1;HPM_P2
2021/06/04 00:01:27;;;;;;;5.90;4.83;;;;;;;17.97;51.93;99794.45;1746758;82;20986;-59
2021/06/04 00:03:54;;;;;;;10.28;9.25;;;;;;;17.94;51.86;99798.94;1718453;81;20962;-58
2021/06/04 00:06:21;;;;;;;12.20;6.40;;;;;;;17.92;51.46;99793.74;1757333;81;20883;-58
2021/06/04 00:08:49;;;;;;;7.25;5.10;;;;;;;17.93;51.45;99791.88;1704453;81;21553;-58
2021/06/04 00:11:27;;;;;;;8.18;5.00;;;;;;;17.93;51.27;99787.34;1688313;84;21080;-57
2021/06/04 00:13:57;;;;;;;6.17;5.05;;;;;;;17.95;51.42;99787.11;1699426;82;21525;-58
2021/06/04 00:16:33;;;;;;;7.30;4.95;;;;;;;17.91;51.67;99792.08;1691408;82;20993;-59
2021/06/04 00:19:00;;;;;;;5.92;4.37;;;;;;;17.84;52.68;99797.48;1709238;82;21037;-57
2021/06/04 00:21:34;;;;;;;8.30;4.53;;;;;;;17.69;53.72;99790.16;1707909;82;21161;-59
2021/06/04 00:24:03;;;;;;;4.95;3.95;;;;;;;17.61;54.69;99798.44;1699603;82;21428;-60
2021/06/04 00:26:30;;;;;;;5.22;4.37;;;;;;;17.55;55.43;99796.57;1694276;83;20967;-59
2021/06/04 00:28:58;;;;;;;5.47;4.80;;;;;;;17.49;55.17;99795.21;1697723;82;21049;-58
2021/06/04 00:31:26;;;;;;;5.90;5.20;;;;;;;17.49;54.66;99794.70;1692025;82;21602;-58
2021/06/04 00:33:54;;;;;;;8.33;5.10;;;;;;;17.55;54.35;99793.05;1705946;81;22726;-59
2021/06/04 00:36:24;;;;;;;7.00;4.83;;;;;;;17.62;53.59;99795.24;1718224;81;21047;-59
2021/06/04 00:38:55;;;;;;;6.67;4.50;;;;;;;17.64;53.19;99797.20;1720209;81;21484;-58
2021/06/04 00:41:27;;;;;;;5.47;4.95;;;;;;;17.65;53.23;99786.22;1720724;82;21060;-58
2021/06/04 00:43:54;;;;;;;6.33;4.53;;;;;;;17.69;52.84;99780.74;1730647;81;21034;-59
2021/06/04 00:46:22;;;;;;;8.63;4.45;;;;;;;17.76;52.74;99790.97;1724083;81;21161;-58
2021/06/04 00:48:49;;;;;;;7.58;5.17;;;;;;;17.73;52.17;99786.00;1707854;81;20871;-58
2021/06/04 00:51:26;;;;;;;5.10;4.65;;;;;;;17.72;52.30;99786.23;1714742;82;21487;-59
2021/06/04 00:53:55;;;;;;;6.47;5.53;;;;;;;17.70;52.04;99782.92;1732168;81;20975;-57
2021/06/04 00:56:25;;;;;;;6.97;5.22;;;;;;;17.64;52.55;99791.30;1722683;82;20959;-58
2021/06/04 00:58:52;;;;;;;5.35;4.53;;;;;;;17.56;53.56;99790.68;1679148;84;21128;-60
2021/06/04 01:01:24;;;;;;;6.83;4.75;;;;;;;17.48;55.07;99782.27;1723742;82;20931;-58
2021/06/04 01:03:58;;;;;;;6.22;4.40;;;;;;;17.43;55.68;99790.65;1697677;81;21487;-59
2021/06/04 01:07:05;;;;;;;5.00;4.53;;;;;;;17.37;56.83;99783.39;1729712;82;21566;-59
2021/06/04 01:10:04;;;;;;;5.12;4.03;;;;;;;17.37;56.83;99783.39;1709932;82;20963;-59
2021/06/04 01:12:56;;;;;;;5.40;4.30;;;;;;;17.34;56.67;99787.33;1705382;82;21173;-58
2021/06/04 01:15:52;;;;;;;4.40;3.87;;;;;;;17.23;56.50;99786.08;1699397;81;21362;-57
2021/06/04 01:18:39;;;;;;;8.03;5.28;;;;;;;17.24;56.29;99792.29;1695216;81;20939;-58
2021/06/04 01:21:14;;;;;;;5.67;4.97;;;;;;;17.23;55.87;99786.62;1698156;81;21011;-58
2021/06/04 01:24:05;;;;;;;6.65;4.87;;;;;;;17.24;55.95;99781.02;1709706;81;20946;-59
2021/06/04 01:26:47;;;;;;;8.85;5.67;;;;;;;17.21;55.76;99785.46;1713162;81;21035;-59
2021/06/04 01:29:23;;;;;;;7.28;5.25;;;;;;;17.16;55.31;99792.48;1689007;82;21540;-58
2021/06/04 01:31:56;;;;;;;5.00;4.50;;;;;;;17.13;56.40;99791.03;1714998;81;21007;-58
2021/06/04 01:34:36;;;;;;;7.53;4.37;;;;;;;17.08;56.69;99789.48;1720842;81;20883;-57
2021/06/04 01:37:27;;;;;;;6.17;4.40;;;;;;;17.09;57.44;99791.66;1729417;81;21556;-58
2021/06/04 01:39:57;;;;;;;8.43;4.20;;;;;;;17.07;57.39;99799.10;1721247;81;21353;-58
2021/06/04 01:42:33;;;;;;;7.78;5.85;;;;;;;17.04;57.83;99801.69;1730372;81;22281;-57
2021/06/04 01:45:14;;;;;;;17.42;11.12;;;;;;;17.05;57.20;99795.80;1741827;81;21531;-57
2021/06/04 01:48:06;;;;;;;23.15;13.85;;;;;;;17.13;56.18;99791.03;1716430;81;20973;-57
2021/06/04 01:50:39;;;;;;;18.25;11.50;;;;;;;17.25;55.41;99793.95;1713159;81;21506;-59
2021/06/04 01:53:18;;;;;;;12.07;9.45;;;;;;;17.28;55.10;99793.55;1745444;81;21115;-58
2021/06/04 01:55:49;;;;;;;16.05;8.65;;;;;;;17.18;55.47;99793.13;1738045;81;20941;-58
2021/06/04 01:58:22;;;;;;;13.90;7.15;;;;;;;17.12;56.30;99801.49;1712968;81;20907;-57
2021/06/04 02:01:00;;;;;;;10.68;7.15;;;;;;;17.07;57.22;99809.34;1730282;81;21436;-58
2021/06/04 02:03:27;;;;;;;18.60;10.98;;;;;;;17.04;57.70;99804.38;1711589;81;21056;-57
2021/06/04 02:05:57;;;;;;;19.25;10.75;;;;;;;17.05;57.12;99802.52;1723278;81;21171;-57
2021/06/04 02:08:29;;;;;;;15.28;9.48;;;;;;;17.05;56.83;99800.63;1733469;81;21009;-57
2021/06/04 02:10:57;;;;;;;12.30;8.88;;;;;;;17.00;57.04;99806.30;1728787;81;20942;-58
2021/06/04 02:13:25;;;;;;;10.20;8.68;;;;;;;17.00;57.36;99809.83;1749282;81;20982;-57
2021/06/04 02:16:38;;;;;;;12.03;8.70;;;;;;;17.01;57.80;99815.52;1730872;81;22484;-56
2021/06/04 02:19:27;;;;;;;8.25;7.33;;;;;;;17.06;57.63;99805.50;1733092;82;21179;-57
2021/06/04 02:22:28;;;;;;;9.13;6.60;;;;;;;17.04;57.03;99808.41;1682333;82;21036;-57
2021/06/04 02:25:28;;;;;;;7.30;5.58;;;;;;;17.11;56.53;99807.89;1712556;81;21002;-57
2021/06/04 02:28:19;;;;;;;11.78;5.70;;;;;;;17.21;56.03;99808.83;1703279;81;21486;-58
2021/06/04 02:30:52;;;;;;;6.00;5.40;;;;;;;17.28;55.70;99806.45;1682562;83;21583;-58
2021/06/04 02:33:27;;;;;;;9.28;6.33;;;;;;;17.38;55.44;99798.00;1698153;81;21055;-59
2021/06/04 02:35:58;;;;;;;7.28;6.58;;;;;;;17.42;54.98;99797.05;1697721;81;21602;-57
2021/06/04 02:38:47;;;;;;;8.95;6.78;;;;;;;17.40;54.83;99803.16;1717322;81;21572;-58
2021/06/04 02:41:28;;;;;;;9.03;6.05;;;;;;;17.28;55.34;99806.45;1726737;81;20947;-59
2021/06/04 02:44:04;;;;;;;6.53;5.87;;;;;;;17.20;55.58;99806.68;1716136;81;21555;-59
2021/06/04 02:46:35;;;;;;;6.08;5.22;;;;;;;17.12;56.28;99810.91;1695953;82;21119;-59
2021/06/04 02:49:03;;;;;;;6.33;5.33;;;;;;;17.10;56.81;99813.48;1748724;81;21064;-59
2021/06/04 02:51:36;;;;;;;5.85;5.25;;;;;;;17.21;56.98;99816.38;1743984;81;21013;-59
2021/06/04 02:54:12;;;;;;;10.38;5.80;;;;;;;17.30;57.22;99807.61;1730240;82;20995;-58
2021/06/04 02:56:44;;;;;;;8.73;6.20;;;;;;;17.35;57.47;99809.16;1684191;83;21615;-57
2021/06/04 02:59:23;;;;;;;14.07;11.10;;;;;;;17.36;56.98;99814.86;1703877;82;21831;-57
2021/06/04 03:02:12;;;;;;;11.68;9.13;;;;;;;17.35;56.39;99812.36;1718247;82;21128;-59
2021/06/04 03:04:46;;;;;;;11.45;8.25;;;;;;;17.42;56.56;99806.46;1716036;81;21531;-57
2021/06/04 03:07:25;;;;;;;6.90;6.20;;;;;;;17.47;56.17;99809.39;1735021;82;21013;-57
2021/06/04 03:09:55;;;;;;;8.48;7.20;;;;;;;17.54;55.87;99803.52;1741900;82;21860;-58
2021/06/04 03:12:27;;;;;;;6.20;5.60;;;;;;;17.60;55.53;99805.36;1723425;81;21204;-58
2021/06/04 03:14:58;;;;;;;7.22;5.50;;;;;;;17.63;56.32;99813.85;1719724;82;20911;-58
2021/06/04 03:17:30;;;;;;;7.87;5.97;;;;;;;17.64;56.73;99813.34;1742170;82;20979;-58
2021/06/04 03:19:59;;;;;;;6.53;5.90;;;;;;;17.58;57.11;99808.78;1738919;81;20926;-56
2021/06/04 03:22:31;;;;;;;7.33;6.37;;;;;;;17.58;57.26;99807.44;1683365;82;21021;-57
2021/06/04 03:25:02;;;;;;;8.30;6.67;;;;;;;17.63;57.75;99817.89;1741276;81;21155;-57
2021/06/04 03:27:28;;;;;;;9.85;5.72;;;;;;;17.57;58.25;99824.63;1724912;82;20988;-58
2021/06/04 03:29:56;;;;;;;9.35;6.67;;;;;;;17.60;58.63;99824.19;1739898;81;20909;-57
2021/06/04 03:32:22;;;;;;;8.70;6.35;;;;;;;17.58;58.43;99818.19;1737272;82;20919;-58
2021/06/04 03:34:51;;;;;;;7.50;5.80;;;;;;;17.64;58.03;99824.09;1714818;82;21049;-57
2021/06/04 03:37:20;;;;;;;9.13;5.75;;;;;;;17.76;58.12;99817.87;1760630;81;21239;-57
2021/06/04 03:39:48;;;;;;;9.28;6.85;;;;;;;17.86;57.33;99816.94;1757170;81;21595;-58
2021/06/04 03:42:23;;;;;;;8.10;5.72;;;;;;;17.92;56.53;99813.92;1715904;81;21507;-57
2021/06/04 03:44:51;;;;;;;11.18;8.38;;;;;;;17.98;56.36;99810.92;1724911;81;20907;-58
2021/06/04 03:47:17;;;;;;;9.65;7.45;;;;;;;17.92;56.65;99815.27;1731146;82;21005;-58
2021/06/04 03:49:44;;;;;;;8.05;6.62;;;;;;;17.93;56.82;99818.80;1758271;81;21978;-57
2021/06/04 03:52:13;;;;;;;8.90;6.20;;;;;;;18.03;56.65;99814.64;1719745;81;20954;-58
2021/06/04 03:54:46;;;;;;;8.70;5.60;;;;;;;18.10;56.92;99813.27;1735149;81;21529;-58
2021/06/04 03:57:17;;;;;;;7.00;5.60;;;;;;;18.09;57.70;99808.42;1745850;81;21500;-58
2021/06/04 03:59:44;;;;;;;8.68;6.25;;;;;;;18.19;58.25;99814.20;1762589;81;20926;-57
2021/06/04 04:02:15;;;;;;;7.97;5.80;;;;;;;18.26;58.46;99832.50;1759542;81;21144;-58
2021/06/04 04:04:42;;;;;;;9.05;5.70;;;;;;;18.40;56.86;99838.69;1756973;81;20997;-58
2021/06/04 04:07:09;;;;;;;7.08;5.85;;;;;;;18.58;55.82;99830.78;1748076;81;20998;-57
2021/06/04 04:09:35;;;;;;;5.83;5.22;;;;;;;18.76;55.19;99828.72;1737069;81;21006;-57
2021/06/04 04:12:03;;;;;;;8.03;5.35;;;;;;;18.95;54.03;99822.42;1751560;81;21109;-57
2021/06/04 04:14:33;;;;;;;8.43;4.97;;;;;;;19.17;53.00;99823.72;1747833;81;20911;-56
2021/06/04 04:17:02;;;;;;;7.17;5.28;;;;;;;19.51;52.27;99815.20;1722663;81;20954;-57
2021/06/04 04:19:30;;;;;;;9.68;7.42;;;;;;;19.84;51.20;99814.11;1734397;81;20965;-58
2021/06/04 04:21:58;;;;;;;7.85;5.92;;;;;;;20.15;50.06;99812.11;1753195;81;20986;-57
2021/06/04 04:24:33;;;;;;;6.67;5.80;;;;;;;20.48;49.55;99815.84;1711315;81;21025;-57
2021/06/04 04:27:00;;;;;;;9.95;5.95;;;;;;;20.80;48.71;99819.19;1712205;81;21129;-56
2021/06/04 04:29:26;;;;;;;5.10;4.62;;;;;;;21.22;47.85;99810.06;1708529;81;20959;-57
2021/06/04 04:31:56;;;;;;;7.20;5.60;;;;;;;21.67;46.46;99806.33;1702369;81;21451;-57
2021/06/04 04:34:24;;;;;;;6.95;5.72;;;;;;;22.04;45.27;99817.27;1727815;81;20951;-57
2021/06/04 04:36:55;;;;;;;7.25;5.83;;;;;;;22.35;44.17;99810.64;1717294;81;21081;-55
2021/06/04 04:39:29;;;;;;;12.30;6.55;;;;;;;22.76;43.70;99813.67;1727628;81;21468;-54
2021/06/04 04:41:56;;;;;;;6.30;5.55;;;;;;;23.45;43.03;99817.16;1712850;81;20997;-56
2021/06/04 04:44:27;;;;;;;7.20;6.08;;;;;;;24.28;41.79;99806.25;1735770;81;20974;-57
2021/06/04 04:46:53;;;;;;;7.37;6.25;;;;;;;24.95;40.00;99816.38;1706808;81;21027;-58
2021/06/04 04:49:20;;;;;;;6.95;5.80;;;;;;;25.44;39.32;99814.41;1718712;81;21022;-57
2021/06/04 04:51:47;;;;;;;11.12;6.25;;;;;;;25.91;38.63;99813.18;1713629;82;21156;-58
2021/06/04 04:54:14;;;;;;;11.50;6.45;;;;;;;26.32;37.65;99807.75;1720872;82;21042;-59
2021/06/04 04:56:41;;;;;;;7.72;6.35;;;;;;;26.54;36.98;99808.13;1698816;84;21026;-57
2021/06/04 04:59:09;;;;;;;6.00;5.40;;;;;;;26.80;36.42;99807.96;1708969;82;21070;-55
2021/06/04 05:01:36;;;;;;;9.50;6.12;;;;;;;27.21;36.00;99803.98;1721307;82;20986;-57
2021/06/04 05:04:03;;;;;;;11.08;6.10;;;;;;;27.67;35.25;99796.64;1713650;82;21143;-58
2021/06/04 05:06:29;;;;;;;13.15;5.97;;;;;;;28.19;34.62;99805.35;1704672;83;21073;-57
2021/06/04 05:08:57;;;;;;;7.95;6.28;;;;;;;28.95;33.68;99807.27;1727373;82;20990;-57
2021/06/04 05:11:24;;;;;;;10.03;6.00;;;;;;;29.85;32.12;99801.70;1687622;83;21485;-58
2021/06/04 05:13:51;;;;;;;9.83;5.50;;;;;;;30.74;30.51;99804.88;1721107;83;21073;-63
2021/06/04 05:16:17;;;;;;;7.60;5.83;;;;;;;31.45;29.34;99801.40;1696656;82;21212;-54
2021/06/04 05:18:45;;;;;;;11.45;5.33;;;;;;;32.29;28.22;99801.58;1693490;84;21562;-59
2021/06/04 05:21:14;;;;;;;6.67;4.75;;;;;;;33.25;27.06;99800.10;1652627;84;21062;-59
2021/06/04 05:23:41;;;;;;;14.05;5.45;;;;;;;34.03;24.76;99800.91;1715001;83;20946;-59
2021/06/04 05:26:08;;;;;;;9.90;5.20;;;;;;;34.04;24.73;99799.23;1700085;82;21504;-60
2021/06/04 05:28:35;;;;;;;12.63;5.83;;;;;;;34.63;24.39;99807.55;1716330;83;21062;-60
2021/06/04 05:31:05;;;;;;;9.13;5.97;;;;;;;35.47;23.59;99801.64;1699656;82;21640;-59
2021/06/04 05:33:35;;;;;;;5.45;4.87;;;;;;;36.13;22.33;99803.59;1715728;83;21064;-58
2021/06/04 05:36:05;;;;;;;9.13;4.70;;;;;;;36.56;22.00;99810.34;1699678;82;20960;-60
2021/06/04 05:38:32;;;;;;;13.45;5.53;;;;;;;37.12;21.59;99802.94;1717767;83;21020;-59
2021/06/04 05:40:58;;;;;;;8.23;4.67;;;;;;;37.43;20.98;99806.70;1700037;82;21116;-58
2021/06/04 05:43:29;;;;;;;8.95;4.60;;;;;;;37.45;20.57;99803.00;1713960;83;21005;-61
2021/06/04 05:45:55;;;;;;;12.13;4.33;;;;;;;37.41;20.29;99801.50;1703764;82;21034;-60
2021/06/04 05:48:22;;;;;;;9.60;4.97;;;;;;;37.54;20.33;99806.52;1716406;83;21491;-60
2021/06/04 05:50:51;;;;;;;10.08;4.80;;;;;;;37.83;20.22;99808.36;1710915;82;21061;-60
2021/06/04 05:53:21;;;;;;;16.12;9.43;;;;;;;37.95;20.12;99805.63;1701239;83;21144;-58
2021/06/04 05:55:47;;;;;;;13.25;5.92;;;;;;;38.11;19.92;99809.37;1697279;83;21148;-56
2021/06/04 05:58:16;;;;;;;13.55;5.30;;;;;;;38.33;19.65;99806.17;1698589;83;21029;-59
2021/06/04 06:00:45;;;;;;;5.65;5.03;;;;;;;38.53;19.40;99810.02;1696270;83;20874;-57
2021/06/04 06:03:15;;;;;;;9.60;4.50;;;;;;;38.62;19.38;99808.72;1696415;83;20894;-60
2021/06/04 06:05:41;;;;;;;9.15;4.30;;;;;;;38.80;19.35;99806.53;1704255;84;21145;-61
2021/06/04 06:08:09;;;;;;;5.92;4.40;;;;;;;39.02;19.05;99801.88;1705959;84;21089;-60
2021/06/04 06:10:35;;;;;;;7.40;4.15;;;;;;;39.08;18.54;99799.66;1703536;84;21524;-62
2021/06/04 06:13:02;;;;;;;9.30;4.30;;;;;;;38.87;18.44;99804.81;1717374;83;21023;-60
2021/06/04 06:15:30;;;;;;;11.25;4.22;;;;;;;38.31;18.55;99812.66;1717497;83;21160;-56
2021/06/04 06:17:56;;;;;;;12.18;8.28;;;;;;;37.88;18.88;99806.78;1713645;83;21120;-58
2021/06/04 06:20:30;;;;;;;10.58;5.85;;;;;;;37.80;19.00;99811.81;1714351;83;21026;-58
2021/06/04 06:22:57;;;;;;;8.00;4.10;;;;;;;37.81;19.07;99806.47;1712842;83;21011;-58
2021/06/04 06:25:34;;;;;;;9.00;3.75;;;;;;;37.77;18.92;99812.49;1715436;83;21006;-61
2021/06/04 06:28:01;;;;;;;14.45;4.05;;;;;;;37.83;18.53;99811.13;1710934;82;21063;-59
2021/06/04 06:30:30;;;;;;;10.05;3.85;;;;;;;37.58;18.63;99812.42;1710389;82;21134;-59
2021/06/04 06:32:56;;;;;;;9.70;3.65;;;;;;;37.35;18.75;99815.30;1713365;83;21003;-61
2021/06/04 06:35:43;;;;;;;7.12;3.45;;;;;;;37.29;19.01;99815.83;1717342;83;20974;-60
2021/06/04 06:38:10;;;;;;;6.85;3.67;;;;;;;37.39;18.66;99810.69;1708303;82;20998;-58
2021/06/04 06:40:36;;;;;;;10.20;3.77;;;;;;;37.52;18.43;99808.83;1717277;83;20950;-60
2021/06/04 06:43:03;;;;;;;8.10;3.50;;;;;;;37.54;18.33;99806.52;1714606;83;21360;-63
2021/06/04 06:45:29;;;;;;;5.08;3.52;;;;;;;37.55;17.97;99813.11;1716147;83;20939;-62
2021/06/04 06:47:56;;;;;;;6.53;3.25;;;;;;;37.06;18.18;99809.83;1714733;83;21112;-64
2021/06/04 06:50:25;;;;;;;6.72;3.33;;;;;;;36.54;18.63;99809.30;1695740;84;20991;-62
2021/06/04 06:52:51;;;;;;;4.08;2.65;;;;;;;36.26;18.07;99808.11;1708476;83;20868;-65
2021/06/04 06:55:22;;;;;;;7.75;2.92;;;;;;;35.57;18.62;99811.58;1698362;83;21556;-64
2021/06/04 06:57:49;;;;;;;8.68;2.47;;;;;;;35.58;18.64;99804.92;1709448;84;21030;-63
2021/06/04 07:00:24;;;;;;;8.33;2.60;;;;;;;35.77;18.62;99808.94;1707438;84;21549;-63
2021/06/04 07:02:50;;;;;;;5.08;2.25;;;;;;;36.04;18.65;99816.08;1708286;84;20998;-59
2021/06/04 07:05:16;;;;;;;4.90;2.58;;;;;;;36.50;18.11;99809.16;1707624;84;21548;-61
2021/06/04 07:07:45;;;;;;;3.58;2.50;;;;;;;36.93;17.48;99805.31;1709159;84;21148;-62
2021/06/04 07:10:16;;;;;;;8.70;2.42;;;;;;;36.90;17.14;99804.59;1702870;84;22253;-63
2021/06/04 07:12:44;;;;;;;3.92;2.00;;;;;;;36.97;16.77;99804.33;1702679;84;20951;-61
2021/06/04 07:15:14;;;;;;;5.80;2.00;;;;;;;36.37;16.72;99804.63;1709481;84;21035;-61
2021/06/04 07:17:40;;;;;;;4.95;2.12;;;;;;;35.99;17.50;99802.38;1703447;84;20995;-62
2021/06/04 07:20:09;;;;;;;2.00;1.90;;;;;;;36.30;17.22;99807.11;1709486;84;22024;-62
2021/06/04 07:22:35;;;;;;;3.98;2.40;;;;;;;36.76;16.89;99797.13;1703479;84;20927;-62
2021/06/04 07:25:08;;;;;;;4.65;2.08;;;;;;;37.00;16.69;99802.28;1706866;84;21003;-61
2021/06/04 07:27:34;;;;;;;4.22;2.40;;;;;;;37.61;16.33;99802.04;1709738;84;20974;-59
2021/06/04 07:30:01;;;;;;;3.12;2.40;;;;;;;38.24;15.75;99802.10;1699199;83;21079;-61
2021/06/04 07:32:30;;;;;;;4.78;1.98;;;;;;;38.79;15.44;99800.19;1699392;84;21128;-67
2021/06/04 07:34:56;;;;;;;4.30;2.40;;;;;;;39.19;15.00;99800.83;1707290;83;20998;-66
2021/06/04 07:37:22;;;;;;;7.40;2.47;;;;;;;39.24;14.56;99799.19;1707166;83;21058;-67
2021/06/04 07:39:49;;;;;;;3.12;2.17;;;;;;;38.87;14.58;99803.99;1702944;83;21127;-66
2021/06/04 07:42:16;;;;;;;4.58;2.42;;;;;;;38.64;15.37;99794.50;1697803;84;21149;-65
2021/06/04 07:45:02;;;;;;;5.62;2.15;;;;;;;38.84;14.94;99801.34;1670366;83;39203;-65
2021/06/04 07:47:29;;;;;;;3.83;2.47;;;;;;;38.81;14.69;99795.66;1699100;84;20992;-65
2021/06/04 07:49:55;;;;;;;7.15;3.90;;;;;;;38.79;14.57;99786.86;1709817;83;21082;-66
2021/06/04 07:52:22;;;;;;;5.03;2.47;;;;;;;38.89;14.68;99785.80;1716476;83;20872;-65
2021/06/04 07:54:50;;;;;;;7.05;2.40;;;;;;;39.39;14.71;99785.33;1701335;82;21002;-65
2021/06/04 07:57:17;;;;;;;4.45;2.08;;;;;;;39.51;14.12;99784.45;1716368;83;21166;-65
2021/06/04 07:59:45;;;;;;;4.45;1.95;;;;;;;38.71;14.86;99788.58;1716484;83;21040;-65
2021/06/04 08:02:12;;;;;;;5.12;1.95;;;;;;;38.75;14.45;99789.52;1717850;83;20911;-66
2021/06/04 08:04:39;;;;;;;6.22;2.10;;;;;;;38.54;14.62;99786.60;1701715;83;20953;-65
2021/06/04 08:07:06;;;;;;;3.70;2.02;;;;;;;38.61;14.64;99789.05;1724475;82;20989;-66
2021/06/04 08:09:33;;;;;;;6.35;1.98;;;;;;;38.60;14.58;99786.03;1708442;83;21174;-66
2021/06/04 08:12:03;;;;;;;7.62;2.27;;;;;;;38.57;14.66;99785.91;1712792;83;20955;-66
2021/06/04 08:14:30;;;;;;;2.37;2.15;;;;;;;38.72;14.93;99776.88;1716535;83;21006;-65
2021/06/04 08:16:58;;;;;;;11.48;5.45;;;;;;;39.01;14.84;99781.34;1717590;83;21002;-65
2021/06/04 08:19:25;;;;;;;9.28;4.10;;;;;;;39.00;14.44;99776.97;1717511;83;21050;-66
2021/06/04 08:21:54;;;;;;;4.90;2.10;;;;;;;38.52;14.36;99781.41;1717554;83;21156;-66
2021/06/04 08:24:28;;;;;;;5.12;1.92;;;;;;;37.88;14.59;99785.95;1717434;83;21014;-66
2021/06/04 08:26:54;;;;;;;6.12;2.50;;;;;;;37.21;14.82;99782.86;1718007;83;21607;-66
2021/06/04 08:29:21;;;;;;;8.70;4.30;;;;;;;36.70;15.71;99780.45;1717427;83;21002;-66
2021/06/04 08:31:47;;;;;;;6.05;3.90;;;;;;;36.62;15.94;99784.08;1717650;83;20947;-65
2021/06/04 08:34:14;;;;;;;4.85;3.20;;;;;;;36.39;15.98;99787.69;1717698;83;21152;-65
2021/06/04 08:36:43;;;;;;;4.37;2.15;;;;;;;36.17;16.12;99781.83;1717475;83;20958;-64
2021/06/04 08:39:16;;;;;;;5.97;2.52;;;;;;;35.88;16.59;99784.50;1717719;83;20947;-65
2021/06/04 08:42:24;;;;;;;6.75;2.30;;;;;;;35.76;16.75;99779.66;1718082;83;21548;-66
2021/06/04 08:45:26;;;;;;;7.25;2.27;;;;;;;35.01;17.00;99778.78;1717779;83;21030;-66
2021/06/04 08:47:58;;;;;;;5.35;1.77;;;;;;;34.59;17.37;99779.52;1717862;83;21836;-67
2021/06/04 08:50:43;;;;;;;6.83;1.80;;;;;;;34.71;17.20;99786.60;1715385;82;21508;-67
2021/06/04 08:53:26;;;;;;;4.83;2.27;;;;;;;34.57;17.38;99790.08;1709752;83;20995;-65
2021/06/04 08:56:06;;;;;;;4.12;1.98;;;;;;;34.77;17.40;99785.33;1702907;83;21013;-66
2021/06/04 08:58:47;;;;;;;8.60;2.60;;;;;;;35.07;17.50;99780.81;1704686;81;21082;-65
2021/06/04 09:01:28;;;;;;;3.22;2.33;;;;;;;35.15;17.47;99775.86;1725061;81;21161;-66
2021/06/04 09:04:15;;;;;;;2.72;2.00;;;;;;;34.61;17.25;99789.11;1734186;81;20982;-64
2021/06/04 09:07:08;;;;;;;2.20;1.87;;;;;;;33.69;18.07;99789.11;1710542;81;20946;-66
2021/06/04 09:10:00;;;;;;;5.12;2.33;;;;;;;33.31;18.50;99785.91;1683325;83;21102;-66
2021/06/04 09:12:47;;;;;;;5.70;2.30;;;;;;;33.47;18.90;99784.97;1711240;81;20998;-64
2021/06/04 09:15:16;;;;;;;2.17;1.90;;;;;;;33.54;18.68;99780.64;1709067;81;21779;-65
2021/06/04 09:17:51;;;;;;;2.02;1.90;;;;;;;33.27;19.17;99781.34;1695887;81;20942;-65
2021/06/04 09:20:38;;;;;;;2.47;1.82;;;;;;;33.28;19.13;99772.73;1728611;81;21495;-66
2021/06/04 09:23:07;;;;;;;4.62;1.80;;;;;;;33.28;19.18;99776.88;1691225;81;21049;-66
2021/06/04 09:25:34;;;;;;;6.22;2.60;;;;;;;33.26;19.15;99775.00;1723222;81;20892;-65
2021/06/04 09:28:16;;;;;;;2.30;1.95;;;;;;;33.06;19.12;99766.40;1733836;81;21899;-64
2021/06/04 09:30:52;;;;;;;5.37;1.70;;;;;;;32.91;18.96;99766.96;1754741;81;21437;-65
2021/06/04 09:33:28;;;;;;;5.42;1.80;;;;;;;32.85;19.28;99766.81;1736940;81;21010;-65
2021/06/04 09:36:12;;;;;;;4.97;1.87;;;;;;;32.73;19.50;99765.16;1695868;81;21070;-65
2021/06/04 09:38:55;;;;;;;2.52;1.80;;;;;;;32.71;19.88;99767.98;1695766;81;21602;-64
2021/06/04 09:41:33;;;;;;;2.67;1.90;;;;;;;32.75;19.57;99763.47;1702700;81;21181;-66
2021/06/04 09:44:20;;;;;;;2.55;1.82;;;;;;;32.14;20.05;99768.03;1725260;81;21003;-65
2021/06/04 09:47:31;;;;;;;5.97;1.70;;;;;;;32.05;20.73;99768.47;1703152;81;21465;-65
2021/06/04 09:49:57;;;;;;;5.08;2.25;;;;;;;32.23;20.87;99758.75;1741810;81;21503;-65
2021/06/04 09:52:36;;;;;;;3.85;1.70;;;;;;;32.37;20.54;99764.26;1695742;81;21030;-65
2021/06/04 09:55:21;;;;;;;5.03;1.77;;;;;;;32.34;20.50;99764.31;1695877;81;21178;-65
2021/06/04 09:58:18;;;;;;;2.33;1.70;;;;;;;32.20;20.21;99759.94;1695978;81;21484;-64
2021/06/04 10:01:07;;;;;;;2.12;1.92;;;;;;;31.82;20.84;99767.50;1696340;81;21028;-65
2021/06/04 10:03:45;;;;;;;1.87;1.42;;;;;;;31.63;20.59;99769.48;1716260;81;20967;-65
2021/06/04 10:06:40;;;;;;;1.45;1.25;;;;;;;31.38;20.40;99771.26;1696075;81;20907;-65
2021/06/04 10:09:31;;;;;;;3.75;1.85;;;;;;;31.25;20.67;99769.27;1716202;81;21847;-65
2021/06/04 10:12:08;;;;;;;3.12;1.37;;;;;;;31.26;20.71;99770.33;1709581;81;20942;-65
2021/06/04 10:14:50;;;;;;;;;;;;;;;31.24;21.04;99777.23;1748619;81;21610;-65
2021/06/04 10:17:41;;;;;;;10.00;2.22;;;;;;;31.16;20.88;99752.08;1711165;81;20172;-63
2021/06/04 10:20:27;;;;;;;8.03;2.12;;;;;;;30.84;21.35;99760.25;1717349;81;20987;-62
2021/06/04 10:23:14;;;;;;;4.37;2.05;;;;;;;30.64;21.73;99756.94;1708625;81;21076;-62
2021/06/04 10:25:55;;;;;;;5.42;1.50;;;;;;;30.46;21.98;99754.42;1720476;81;20938;-64
2021/06/04 10:29:01;;;;;;;5.72;1.57;;;;;;;30.37;22.28;99759.77;1721919;81;20891;-64
2021/06/04 10:31:49;;;;;;;5.17;1.22;;;;;;;30.36;22.29;99760.87;1637314;83;20974;-62
2021/06/04 10:34:51;;;;;;;3.77;1.40;;;;;;;30.28;21.93;99762.85;1713656;81;21034;-63
2021/06/04 10:37:42;;;;;;;2.33;1.50;;;;;;;30.24;21.99;99752.22;1744467;81;21850;-63
2021/06/04 10:40:37;;;;;;;4.83;1.30;;;;;;;30.05;21.81;99754.07;1721862;81;21045;-62
2021/06/04 10:43:16;;;;;;;2.22;1.27;;;;;;;29.92;21.84;99755.58;1710685;81;21552;-62
2021/06/04 10:45:54;;;;;;;6.00;1.75;;;;;;;29.78;21.24;99757.36;1729827;81;21543;-63
2021/06/04 10:49:04;;;;;;;4.42;1.52;;;;;;;29.58;21.90;99756.16;1742518;81;20923;-64
2021/06/04 10:51:58;;;;;;;2.37;1.40;;;;;;;29.51;21.78;99748.83;1658766;84;21496;-63
2021/06/04 10:54:55;;;;;;;2.65;1.30;;;;;;;29.61;21.95;99754.22;1709271;83;21019;-62
2021/06/04 10:57:39;;;;;;;2.58;1.98;;;;;;;29.86;21.55;99740.83;1709692;84;21596;-62
2021/06/04 11:00:18;;;;;;;3.45;2.08;;;;;;;29.84;22.15;99745.24;1703439;83;21596;-62
2021/06/04 11:03:14;;;;;;;2.80;2.12;;;;;;;29.65;22.36;99750.33;1708770;83;21599;-62
2021/06/04 11:06:10;;;;;;;2.45;1.42;;;;;;;29.37;22.46;99747.84;1704744;84;27240;-63
2021/06/04 11:09:12;;;;;;;1.40;1.22;;;;;;;29.20;22.74;99742.76;1704998;84;21002;-62
2021/06/04 11:12:14;;;;;;;5.50;1.35;;;;;;;29.16;22.76;99739.48;1708501;83;20912;-63
2021/06/04 11:14:52;;;;;;;2.42;1.10;;;;;;;29.19;22.46;99741.11;1699760;83;21016;-61
2021/06/04 11:17:47;;;;;;;2.87;2.10;;;;;;;29.04;22.31;99743.14;1697971;83;20998;-61
2021/06/04 11:20:22;;;;;;;1.85;1.27;;;;;;;28.89;22.36;99733.09;1703961;83;21935;-63
2021/06/04 11:23:17;;;;;;;1.57;1.40;;;;;;;28.85;22.64;99732.03;1704393;83;21590;-63
2021/06/04 11:25:52;;;;;;;3.25;1.47;;;;;;;28.78;23.04;99735.07;1708080;83;20986;-61
2021/06/04 11:28:30;;;;;;;5.17;1.57;;;;;;;28.65;22.92;99729.42;1696838;83;21050;-64
2021/06/04 11:31:00;;;;;;;2.20;1.32;;;;;;;28.65;23.83;99730.22;1709554;83;21070;-64
2021/06/04 11:33:31;;;;;;;2.55;1.47;;;;;;;28.70;24.05;99728.03;1709474;83;21131;-64
2021/06/04 11:36:12;;;;;;;5.17;1.80;;;;;;;28.81;24.36;99728.21;1709367;83;20940;-62
2021/06/04 11:38:54;;;;;;;2.85;1.50;;;;;;;28.94;24.25;99722.67;1702438;83;21520;-61
2021/06/04 11:41:48;;;;;;;6.08;1.50;;;;;;;28.94;24.02;99727.58;1706710;83;21033;-62
2021/06/04 11:44:34;;;;;;;3.58;1.72;;;;;;;28.90;23.74;99729.27;1699017;83;20939;-61
2021/06/04 11:47:21;;;;;;;3.98;1.57;;;;;;;28.78;23.46;99724.70;1710306;83;21164;-63
2021/06/04 11:50:01;;;;;;;1.35;1.22;;;;;;;28.68;23.49;99717.34;1710262;84;20955;-63
2021/06/04 11:52:42;;;;;;;2.37;1.55;;;;;;;28.67;23.50;99717.64;1717210;82;21046;-62
2021/06/04 11:55:27;;;;;;;4.20;1.60;;;;;;;28.64;23.55;99713.55;1748270;81;21491;-64
2021/06/04 11:58:22;;;;;;;3.25;1.47;;;;;;;28.64;23.48;99716.83;1713191;83;21569;-63
2021/06/04 12:00:54;;;;;;;3.92;1.50;;;;;;;28.64;23.73;99719.02;1754568;81;21081;-63
2021/06/04 12:03:32;;;;;;;6.47;1.65;;;;;;;28.66;23.85;99716.81;1756307;81;20879;-61
2021/06/04 12:06:26;;;;;;;3.55;1.85;;;;;;;28.70;23.89;99720.64;1756964;81;20927;-61
2021/06/04 12:08:56;;;;;;;1.40;1.30;;;;;;;28.65;23.62;99723.38;1689271;84;20931;-60